createdAt,value
2023-02-12T00:01:33.774Z,100.00
2023-02-12T00:04:04.137Z,100.00
2023-02-12T00:06:32.247Z,100.00
2023-02-12T00:09:00.386Z,100.00
2023-02-12T00:11:29.736Z,100.00
2023-02-12T00:13:58.574Z,100.00
2023-02-12T00:16:29.101Z,100.00
2023-02-12T00:18:59.025Z,100.00
2023-02-12T00:21:27.704Z,100.00
2023-02-12T00:23:56.283Z,100.00
2023-02-12T00:26:25.129Z,100.00
2023-02-12T00:28:54.624Z,100.00
2023-02-12T00:31:26.748Z,100.00
2023-02-12T00:34:00.667Z,100.00
2023-02-12T00:36:31.439Z,100.00
2023-02-12T00:39:01.550Z,100.00
2023-02-12T00:41:30.088Z,100.00
2023-02-12T00:43:58.322Z,100.00
2023-02-12T00:46:26.674Z,100.00
2023-02-12T00:48:56.794Z,100.00
2023-02-12T00:51:24.776Z,100.00
2023-02-12T00:53:55.350Z,100.00
2023-02-12T00:56:23.446Z,100.00
2023-02-12T00:58:52.574Z,100.00
2023-02-12T01:01:20.706Z,100.00
2023-02-12T01:03:48.840Z,100.00
2023-02-12T01:06:16.807Z,100.00
2023-02-12T01:08:47.369Z,100.00
2023-02-12T01:11:15.575Z,100.00
2023-02-12T01:13:43.707Z,100.00
2023-02-12T01:16:18.043Z,100.00
2023-02-12T01:18:47.350Z,100.00
2023-02-12T01:21:21.825Z,100.00
2023-02-12T01:23:50.686Z,100.00
2023-02-12T01:26:21.463Z,100.00
2023-02-12T01:28:53.500Z,100.00
2023-02-12T01:31:24.361Z,100.00
2023-02-12T01:33:54.992Z,100.00
2023-02-12T01:36:27.297Z,100.00
2023-02-12T01:38:56.787Z,100.00
2023-02-12T01:41:32.617Z,100.00
2023-02-12T01:44:13.475Z,100.00
2023-02-12T01:46:43.746Z,100.00
2023-02-12T01:49:29.707Z,100.00
2023-02-12T01:52:27.500Z,100.00
2023-02-12T01:54:59.303Z,100.00
2023-02-12T01:57:31.081Z,100.00
2023-02-12T02:00:01.779Z,100.00
2023-02-12T02:02:32.272Z,100.00
2023-02-12T02:05:03.679Z,100.00
2023-02-12T02:07:32.995Z,100.00
2023-02-12T02:10:02.143Z,100.00
2023-02-12T02:12:49.936Z,100.00
2023-02-12T02:15:18.323Z,100.00
2023-02-12T02:17:53.234Z,100.00
2023-02-12T02:20:39.967Z,100.00
2023-02-12T02:23:16.992Z,100.00
2023-02-12T02:26:20.820Z,100.00
2023-02-12T02:28:58.231Z,100.00
2023-02-12T02:31:44.102Z,100.00
2023-02-12T02:34:19.425Z,100.00
2023-02-12T02:37:03.753Z,100.00
2023-02-12T02:39:42.165Z,100.00
2023-02-12T02:42:23.736Z,100.00
2023-02-12T02:45:04.305Z,100.00
2023-02-12T02:47:37.870Z,100.00
2023-02-12T02:50:10.976Z,100.00
2023-02-12T02:52:52.521Z,100.00
2023-02-12T02:55:25.382Z,100.00
2023-02-12T02:58:25.834Z,100.00
2023-02-12T03:00:59.325Z,100.00
2023-02-12T03:03:34.398Z,100.00
2023-02-12T03:06:29.732Z,100.00
2023-02-12T03:09:05.425Z,100.00
2023-02-12T03:11:34.586Z,100.00
2023-02-12T03:14:25.989Z,100.00
2023-02-12T03:17:10.042Z,100.00
2023-02-12T03:19:51.608Z,100.00
2023-02-12T03:22:31.585Z,100.00
2023-02-12T03:25:21.550Z,100.00
2023-02-12T03:28:09.823Z,100.00
2023-02-12T03:31:02.850Z,100.00
2023-02-12T03:33:59.083Z,100.00
2023-02-12T03:36:31.719Z,100.00
2023-02-12T03:39:09.029Z,100.00
2023-02-12T03:41:48.131Z,100.00
2023-02-12T03:44:56.696Z,100.00
2023-02-12T03:47:38.956Z,100.00
2023-02-12T03:50:11.010Z,100.00
2023-02-12T03:52:39.323Z,100.00
2023-02-12T03:55:08.434Z,100.00
2023-02-12T03:57:45.223Z,100.00
2023-02-12T04:00:19.294Z,100.00
2023-02-12T04:02:49.018Z,100.00
2023-02-12T04:05:28.450Z,100.00
2023-02-12T04:07:58.868Z,100.00
2023-02-12T04:11:07.991Z,100.00
2023-02-12T04:14:19.499Z,100.00
2023-02-12T04:17:08.921Z,100.00
2023-02-12T04:20:05.489Z,100.00
2023-02-12T04:22:58.332Z,100.00
2023-02-12T04:25:48.606Z,100.00
2023-02-12T04:28:39.245Z,100.00
2023-02-12T04:31:24.263Z,100.00
2023-02-12T04:34:13.986Z,100.00
2023-02-12T04:36:52.890Z,100.00
2023-02-12T04:39:25.855Z,100.00
2023-02-12T04:41:54.048Z,100.00
2023-02-12T04:44:24.683Z,100.00
2023-02-12T04:46:53.179Z,100.00
2023-02-12T04:49:23.197Z,100.00
2023-02-12T04:51:51.634Z,100.00
2023-02-12T04:54:21.974Z,100.00
2023-02-12T04:56:50.873Z,100.00
2023-02-12T04:59:18.966Z,100.00
2023-02-12T05:01:47.111Z,100.00
2023-02-12T05:04:16.892Z,100.00
2023-02-12T05:06:46.645Z,100.00
2023-02-12T05:09:20.713Z,100.00
2023-02-12T05:11:48.879Z,100.00
2023-02-12T05:14:18.300Z,100.00
2023-02-12T05:16:46.309Z,100.00
2023-02-12T05:19:14.288Z,100.00
2023-02-12T05:21:42.348Z,100.00
2023-02-12T05:24:10.696Z,100.00
2023-02-12T05:26:39.958Z,100.00
2023-02-12T05:29:08.217Z,100.00
2023-02-12T05:31:36.318Z,100.00
2023-02-12T05:34:04.509Z,100.00
2023-02-12T05:36:33.097Z,100.00
2023-02-12T05:39:01.038Z,100.00
2023-02-12T05:41:29.521Z,100.00
2023-02-12T05:43:57.563Z,100.00
2023-02-12T05:46:25.532Z,100.00
2023-02-12T05:48:53.969Z,100.00
2023-02-12T05:51:25.153Z,100.00
2023-02-12T05:53:58.992Z,100.00
2023-02-12T05:56:33.328Z,100.00
2023-02-12T05:59:08.936Z,100.00
2023-02-12T06:01:41.896Z,100.00
2023-02-12T06:04:18.974Z,100.00
2023-02-12T06:06:48.493Z,100.00
2023-02-12T06:09:16.713Z,100.00
2023-02-12T06:11:44.924Z,100.00
2023-02-12T06:14:15.801Z,100.00
2023-02-12T06:16:48.243Z,100.00
2023-02-12T06:19:16.871Z,100.00
2023-02-12T06:21:46.340Z,100.00
2023-02-12T06:24:16.452Z,100.00
2023-02-12T06:26:50.324Z,100.00
2023-02-12T06:29:20.691Z,100.00
2023-02-12T06:31:49.340Z,100.00
2023-02-12T06:34:18.466Z,100.00
2023-02-12T06:36:47.829Z,100.00
2023-02-12T06:39:17.536Z,100.00
2023-02-12T06:41:45.751Z,100.00
2023-02-12T06:44:13.772Z,100.00
2023-02-12T06:46:42.549Z,100.00
2023-02-12T06:49:14.329Z,100.00
2023-02-12T06:51:42.741Z,100.00
2023-02-12T06:54:16.863Z,100.00
2023-02-12T06:56:45.386Z,100.00
2023-02-12T06:59:16.363Z,100.00
2023-02-12T07:01:46.628Z,100.00
2023-02-12T07:04:14.901Z,100.00
2023-02-12T07:06:42.980Z,100.00
2023-02-12T07:09:10.968Z,100.00
2023-02-12T07:11:39.961Z,100.00
2023-02-12T07:14:07.914Z,100.00
2023-02-12T07:16:36.003Z,100.00
2023-02-12T07:19:04.780Z,100.00
2023-02-12T07:21:33.208Z,100.00
2023-02-12T07:24:01.252Z,100.00
2023-02-12T07:26:29.337Z,100.00
2023-02-12T07:28:58.850Z,100.00
2023-02-12T07:31:27.123Z,100.00
2023-02-12T07:33:57.368Z,100.00
2023-02-12T07:36:28.189Z,100.00
2023-02-12T07:38:57.309Z,100.00
2023-02-12T07:41:30.743Z,100.00
2023-02-12T07:44:16.757Z,100.00
2023-02-12T07:46:48.611Z,100.00
2023-02-12T07:49:19.667Z,100.00
2023-02-12T07:51:49.372Z,100.00
2023-02-12T07:54:17.352Z,100.00
2023-02-12T07:56:47.199Z,100.00
2023-02-12T07:59:18.198Z,100.00
2023-02-12T08:01:52.926Z,100.00
2023-02-12T08:04:24.038Z,100.00
2023-02-12T08:06:54.575Z,100.00
2023-02-12T08:09:25.965Z,100.00
2023-02-12T08:11:55.820Z,100.00
2023-02-12T08:14:24.092Z,100.00
2023-02-12T08:16:53.091Z,100.00
2023-02-12T08:19:25.790Z,100.00
2023-02-12T08:21:56.885Z,100.00
2023-02-12T08:24:25.887Z,100.00
2023-02-12T08:26:55.344Z,100.00
2023-02-12T08:29:27.735Z,100.00
2023-02-12T08:31:59.500Z,100.00
2023-02-12T08:34:31.160Z,100.00
2023-02-12T08:36:59.758Z,100.00
2023-02-12T08:39:29.453Z,100.00
2023-02-12T08:41:59.242Z,100.00
2023-02-12T08:44:27.526Z,100.00
2023-02-12T08:46:58.433Z,100.00
2023-02-12T08:49:29.411Z,100.00
2023-02-12T08:51:58.982Z,100.00
2023-02-12T08:54:29.449Z,100.00
2023-02-12T08:57:01.696Z,100.00
2023-02-12T08:59:30.358Z,100.00
2023-02-12T09:01:59.720Z,100.00
2023-02-12T09:04:29.009Z,100.00
2023-02-12T09:06:57.398Z,100.00
2023-02-12T09:09:25.449Z,100.00
2023-02-12T09:11:53.507Z,100.00
2023-02-12T09:14:24.417Z,100.00
2023-02-12T09:16:55.160Z,100.00
2023-02-12T09:19:23.805Z,100.00
2023-02-12T09:21:55.798Z,100.00
2023-02-12T09:24:27.877Z,100.00
2023-02-12T09:26:56.961Z,100.00
2023-02-12T09:29:25.517Z,100.00
2023-02-12T09:31:53.748Z,100.00
2023-02-12T09:34:21.920Z,100.00
2023-02-12T09:36:49.968Z,100.00
2023-02-12T09:39:17.897Z,100.00
2023-02-12T09:41:54.556Z,100.00
2023-02-12T09:44:48.242Z,100.00
2023-02-12T09:47:36.394Z,100.00
2023-02-12T09:50:13.954Z,100.00
2023-02-12T09:52:41.959Z,100.00
2023-02-12T09:55:19.922Z,100.00
2023-02-12T09:57:48.470Z,100.00
2023-02-12T10:00:23.668Z,100.00
2023-02-12T10:02:53.946Z,100.00
2023-02-12T10:05:32.378Z,100.00
2023-02-12T10:08:06.312Z,100.00
2023-02-12T10:11:10.300Z,100.00
2023-02-12T10:13:41.270Z,100.00
2023-02-12T10:16:38.457Z,100.00
2023-02-12T10:19:24.147Z,100.00
2023-02-12T10:22:11.207Z,100.00
2023-02-12T10:24:59.974Z,100.00
2023-02-12T10:27:43.306Z,100.00
2023-02-12T10:30:59.105Z,100.00
2023-02-12T10:33:32.618Z,100.00
2023-02-12T10:36:16.313Z,100.00
2023-02-12T10:38:50.699Z,100.00
2023-02-12T10:41:19.066Z,100.00
2023-02-12T10:43:47.190Z,100.00
2023-02-12T10:46:16.682Z,100.00
2023-02-12T10:48:48.776Z,100.00
2023-02-12T10:51:46.524Z,100.00
2023-02-12T10:54:41.234Z,100.00
2023-02-12T10:57:21.351Z,100.00
2023-02-12T10:59:53.249Z,100.00
2023-02-12T11:02:26.060Z,100.00
2023-02-12T11:04:56.048Z,100.00
2023-02-12T11:07:26.346Z,100.00
2023-02-12T11:09:56.840Z,100.00
2023-02-12T11:12:38.668Z,100.00
2023-02-12T11:15:15.753Z,100.00
2023-02-12T11:17:46.330Z,100.00
2023-02-12T11:20:20.898Z,100.00
2023-02-12T11:23:00.302Z,100.00
2023-02-12T11:25:31.432Z,100.00
2023-02-12T11:28:13.897Z,100.00
2023-02-12T11:31:20.406Z,100.00
2023-02-12T11:34:06.367Z,100.00
2023-02-12T11:36:39.110Z,100.00
2023-02-12T11:39:21.406Z,100.00
2023-02-12T11:41:56.229Z,100.00
2023-02-12T11:44:30.500Z,100.00
2023-02-12T11:47:09.642Z,100.00
2023-02-12T11:49:56.692Z,100.00
2023-02-12T11:52:29.498Z,100.00
2023-02-12T11:55:01.453Z,100.00
2023-02-12T11:57:46.553Z,100.00
2023-02-12T12:00:18.303Z,100.00
2023-02-12T12:03:02.684Z,100.00
2023-02-12T12:05:38.395Z,100.00
2023-02-12T12:08:36.185Z,100.00
2023-02-12T12:11:13.324Z,100.00
2023-02-12T12:13:56.432Z,100.00
2023-02-12T12:17:13.476Z,100.00
2023-02-12T12:19:57.188Z,100.00
2023-02-12T12:22:35.933Z,100.00
2023-02-12T12:25:27.300Z,100.00
2023-02-12T12:28:29.156Z,100.00
2023-02-12T12:31:15.400Z,100.00
2023-02-12T12:34:06.817Z,100.00
2023-02-12T12:37:07.979Z,100.00
2023-02-12T12:40:04.951Z,100.00
2023-02-12T12:42:59.170Z,100.00
2023-02-12T12:45:55.116Z,100.00
2023-02-12T12:48:56.257Z,100.00
2023-02-12T12:51:36.452Z,100.00
2023-02-12T12:54:58.767Z,100.00
2023-02-12T12:57:54.982Z,100.00
2023-02-12T13:00:25.934Z,100.00
2023-02-12T13:03:12.923Z,100.00
2023-02-12T13:05:59.358Z,100.00
2023-02-12T13:08:40.548Z,100.00
2023-02-12T13:11:08.452Z,100.00
2023-02-12T13:13:41.914Z,100.00
2023-02-12T13:16:42.425Z,100.00
2023-02-12T13:19:37.259Z,100.00
2023-02-12T13:22:09.285Z,100.00
2023-02-12T13:24:43.064Z,100.00
2023-02-12T13:27:22.809Z,100.00
2023-02-12T13:29:55.293Z,100.00
2023-02-12T13:32:40.654Z,100.00
2023-02-12T13:35:18.294Z,100.00
2023-02-12T13:37:58.634Z,100.00
2023-02-12T13:40:30.054Z,100.00
2023-02-12T13:43:13.918Z,100.00
2023-02-12T13:45:46.995Z,100.00
2023-02-12T13:48:46.102Z,100.00
2023-02-12T13:51:42.052Z,100.00
2023-02-12T13:54:26.212Z,100.00
2023-02-12T13:57:02.940Z,100.00
2023-02-12T13:59:39.977Z,100.00
2023-02-12T14:02:39.006Z,100.00
2023-02-12T14:05:31.464Z,100.00
2023-02-12T14:08:05.292Z,100.00
2023-02-12T14:10:39.953Z,100.00
2023-02-12T14:13:16.416Z,100.00
2023-02-12T14:15:54.362Z,100.00
2023-02-12T14:18:30.608Z,100.00
2023-02-12T14:21:19.436Z,100.00
2023-02-12T14:23:47.668Z,100.00
2023-02-12T14:26:22.326Z,100.00
2023-02-12T14:29:13.187Z,100.00
2023-02-12T14:31:43.092Z,100.00
2023-02-12T14:34:11.528Z,100.00
2023-02-12T14:36:44.190Z,100.00
2023-02-12T14:39:24.369Z,100.00
2023-02-12T14:42:13.337Z,100.00
2023-02-12T14:44:49.169Z,99.96
2023-02-12T14:47:29.337Z,98.72
2023-02-12T14:50:07.253Z,95.42
2023-02-12T14:52:41.327Z,92.97
2023-02-12T14:55:26.122Z,94.54
2023-02-12T14:58:01.305Z,91.25
2023-02-12T15:00:41.491Z,91.24
2023-02-12T15:03:12.893Z,96.58
2023-02-12T15:05:56.577Z,96.52
2023-02-12T15:08:50.876Z,90.84
2023-02-12T15:11:33.285Z,91.95
2023-02-12T15:14:22.524Z,92.50
2023-02-12T15:17:19.146Z,99.67
2023-02-12T15:19:53.156Z,100.00
2023-02-12T15:22:35.806Z,100.00
2023-02-12T15:25:27.535Z,100.00
2023-02-12T15:28:01.997Z,100.00
2023-02-12T15:30:35.662Z,100.00
2023-02-12T15:33:07.079Z,100.00
2023-02-12T15:35:45.905Z,100.00
2023-02-12T15:38:36.882Z,100.00
2023-02-12T15:41:06.614Z,100.00
2023-02-12T15:43:40.970Z,100.00
2023-02-12T15:46:18.307Z,100.00
2023-02-12T15:48:47.131Z,100.00
2023-02-12T15:51:39.795Z,100.00
2023-02-12T15:54:20.308Z,100.00
2023-02-12T15:56:52.743Z,100.00
2023-02-12T15:59:24.276Z,100.00
2023-02-12T16:02:01.192Z,100.00
2023-02-12T16:04:37.395Z,100.00
2023-02-12T16:07:08.367Z,100.00
2023-02-12T16:09:37.160Z,100.00
2023-02-12T16:12:12.364Z,100.00
2023-02-12T16:14:43.890Z,100.00
2023-02-12T16:17:23.245Z,100.00
2023-02-12T16:20:05.103Z,100.00
2023-02-12T16:22:40.168Z,100.00
2023-02-12T16:25:16.497Z,100.00
2023-02-12T16:28:05.951Z,100.00
2023-02-12T16:30:42.814Z,100.00
2023-02-12T16:33:45.501Z,100.00
2023-02-12T16:36:20.755Z,100.00
2023-02-12T16:38:55.391Z,100.00
2023-02-12T16:41:27.338Z,100.00
2023-02-12T16:44:01.643Z,100.00
2023-02-12T16:46:33.104Z,100.00
2023-02-12T16:49:03.182Z,100.00
2023-02-12T16:51:33.826Z,100.00
2023-02-12T16:54:04.665Z,100.00
2023-02-12T16:56:40.748Z,100.00
2023-02-12T16:59:09.652Z,100.00
2023-02-12T17:01:37.738Z,100.00
2023-02-12T17:04:08.873Z,100.00
2023-02-12T17:06:36.884Z,100.00
2023-02-12T17:09:04.939Z,100.00
2023-02-12T17:11:33.055Z,100.00
2023-02-12T17:14:01.198Z,100.00
2023-02-12T17:16:31.511Z,100.00
2023-02-12T17:19:00.824Z,100.00
2023-02-12T17:21:37.892Z,100.00
2023-02-12T17:24:21.309Z,100.00
2023-02-12T17:26:51.269Z,100.00
2023-02-12T17:29:21.761Z,100.00
2023-02-12T17:31:51.865Z,100.00
2023-02-12T17:34:20.516Z,100.00
2023-02-12T17:36:48.747Z,100.00
2023-02-12T17:39:17.849Z,100.00
2023-02-12T17:41:46.943Z,100.00
2023-02-12T17:44:16.586Z,100.00
2023-02-12T17:46:45.922Z,100.00
2023-02-12T17:49:14.027Z,100.00
2023-02-12T17:51:43.612Z,100.00
2023-02-12T17:54:12.395Z,100.00
2023-02-12T17:56:40.507Z,100.00
2023-02-12T17:59:09.955Z,100.00
2023-02-12T18:01:39.818Z,100.00
2023-02-12T18:04:08.080Z,100.00
2023-02-12T18:06:36.188Z,100.00
2023-02-12T18:09:04.688Z,100.00
2023-02-12T18:11:33.465Z,100.00
2023-02-12T18:14:02.342Z,100.00
2023-02-12T18:16:32.797Z,100.00
2023-02-12T18:19:04.547Z,100.00
2023-02-12T18:21:35.240Z,100.00
2023-02-12T18:24:03.963Z,100.00
2023-02-12T18:26:32.824Z,100.00
2023-02-12T18:29:01.221Z,100.00
2023-02-12T18:31:29.980Z,100.00
2023-02-12T18:33:59.499Z,100.00
2023-02-12T18:36:27.632Z,100.00
2023-02-12T18:38:55.729Z,100.00
2023-02-12T18:41:26.578Z,100.00
2023-02-12T18:43:56.684Z,100.00
2023-02-12T18:46:30.066Z,100.00
2023-02-12T18:48:59.954Z,100.00
2023-02-12T18:51:32.107Z,100.00
2023-02-12T18:54:05.336Z,100.00
2023-02-12T18:56:36.882Z,100.00
2023-02-12T18:59:06.036Z,100.00
2023-02-12T19:01:36.177Z,100.00
2023-02-12T19:04:07.421Z,100.00
2023-02-12T19:06:57.727Z,100.00
2023-02-12T19:09:27.037Z,100.00
2023-02-12T19:11:57.696Z,100.00
2023-02-12T19:14:27.974Z,100.00
2023-02-12T19:16:55.933Z,100.00
2023-02-12T19:19:24.972Z,100.00
2023-02-12T19:21:53.030Z,100.00
2023-02-12T19:24:21.258Z,100.00
2023-02-12T19:26:52.301Z,100.00
2023-02-12T19:29:20.674Z,100.00
2023-02-12T19:31:49.422Z,100.00
2023-02-12T19:34:20.268Z,100.00
2023-02-12T19:36:49.913Z,100.00
2023-02-12T19:39:21.668Z,100.00
2023-02-12T19:41:51.219Z,100.00
2023-02-12T19:44:22.764Z,100.00
2023-02-12T19:46:51.667Z,100.00
2023-02-12T19:49:22.747Z,100.00
2023-02-12T19:51:51.092Z,100.00
2023-02-12T19:54:22.467Z,100.00
2023-02-12T19:56:52.951Z,100.00
2023-02-12T19:59:23.991Z,100.00
2023-02-12T20:01:53.254Z,100.00
2023-02-12T20:04:23.048Z,100.00
2023-02-12T20:06:51.331Z,100.00
2023-02-12T20:09:22.443Z,100.00
2023-02-12T20:11:51.300Z,100.00
2023-02-12T20:14:21.131Z,100.00
2023-02-12T20:16:53.796Z,100.00
2023-02-12T20:19:25.864Z,100.00
2023-02-12T20:21:55.919Z,100.00
2023-02-12T20:24:26.425Z,100.00
2023-02-12T20:26:56.643Z,100.00
2023-02-12T20:29:25.470Z,100.00
2023-02-12T20:31:54.378Z,100.00
2023-02-12T20:34:22.760Z,100.00
2023-02-12T20:36:52.638Z,100.00
2023-02-12T20:39:21.333Z,100.00
2023-02-12T20:41:50.659Z,100.00
2023-02-12T20:44:24.026Z,100.00
2023-02-12T20:46:56.483Z,100.00
2023-02-12T20:49:28.355Z,100.00
2023-02-12T20:51:57.250Z,100.00
2023-02-12T20:54:26.046Z,100.00
2023-02-12T20:56:54.335Z,100.00
2023-02-12T20:59:22.495Z,100.00
2023-02-12T21:01:50.725Z,100.00
2023-02-12T21:04:20.481Z,100.00
2023-02-12T21:06:48.956Z,100.00
2023-02-12T21:09:19.134Z,100.00
2023-02-12T21:11:47.952Z,100.00
2023-02-12T21:14:24.797Z,100.00
2023-02-12T21:16:55.189Z,100.00
2023-02-12T21:19:24.661Z,100.00
2023-02-12T21:21:53.141Z,100.00
2023-02-12T21:24:25.894Z,100.00
2023-02-12T21:26:56.480Z,100.00
2023-02-12T21:29:27.571Z,100.00
2023-02-12T21:31:55.923Z,100.00
2023-02-12T21:34:24.384Z,100.00
2023-02-12T21:36:54.765Z,100.00
2023-02-12T21:39:27.353Z,100.00
2023-02-12T21:42:02.885Z,100.00
2023-02-12T21:44:35.648Z,100.00
2023-02-12T21:47:04.664Z,100.00
2023-02-12T21:49:33.096Z,100.00
2023-02-12T21:52:04.650Z,100.00
2023-02-12T21:54:33.647Z,100.00
2023-02-12T21:57:02.523Z,100.00
2023-02-12T21:59:32.344Z,100.00
2023-02-12T22:02:01.950Z,100.00
2023-02-12T22:04:32.378Z,100.00
2023-02-12T22:07:03.293Z,100.00
2023-02-12T22:09:32.118Z,100.00
2023-02-12T22:12:00.238Z,100.00
2023-02-12T22:14:28.267Z,100.00
2023-02-12T22:16:56.347Z,100.00
2023-02-12T22:19:24.621Z,100.00
2023-02-12T22:21:53.802Z,100.00
2023-02-12T22:24:22.194Z,100.00
2023-02-12T22:26:50.306Z,100.00
2023-02-12T22:29:18.488Z,100.00
2023-02-12T22:31:47.138Z,100.00
2023-02-12T22:34:19.158Z,100.00
2023-02-12T22:36:48.695Z,100.00
2023-02-12T22:39:17.759Z,100.00
2023-02-12T22:41:46.618Z,100.00
2023-02-12T22:44:16.379Z,100.00
2023-02-12T22:46:44.784Z,100.00
2023-02-12T22:49:12.828Z,100.00
2023-02-12T22:51:41.354Z,100.00
2023-02-12T22:54:15.466Z,100.00
2023-02-12T22:56:44.188Z,100.00
2023-02-12T22:59:12.735Z,100.00
2023-02-12T23:01:43.468Z,100.00
2023-02-12T23:04:19.061Z,100.00
2023-02-12T23:06:47.300Z,100.00
2023-02-12T23:09:19.108Z,100.00
2023-02-12T23:11:48.068Z,100.00
2023-02-12T23:14:16.180Z,100.00
2023-02-12T23:16:44.188Z,100.00
2023-02-12T23:19:12.853Z,100.00
2023-02-12T23:21:40.850Z,100.00
2023-02-12T23:24:13.970Z,100.00
2023-02-12T23:26:42.097Z,100.00
2023-02-12T23:29:10.148Z,100.00
2023-02-12T23:31:38.903Z,100.00
2023-02-12T23:34:07.044Z,100.00
2023-02-12T23:36:35.589Z,100.00
2023-02-12T23:39:05.864Z,100.00
2023-02-12T23:41:34.366Z,100.00
2023-02-12T23:44:02.573Z,100.00
2023-02-12T23:46:30.899Z,100.00
2023-02-12T23:48:59.061Z,100.00
2023-02-12T23:51:27.034Z,100.00
2023-02-12T23:53:55.031Z,100.00
2023-02-12T23:56:23.666Z,100.00
2023-02-12T23:58:51.620Z,100.00
